Share

Acapulco, Mexico

Gen Juan N Alvarez International (MMAA) Elev 16 ft | 16.76 °N, 99.75 °W | Change Station

Current weather conditions updated 1 hour ago

Clear
Clear
81 °F
Feels Like 86 °F
N
6
Wind Variable Wind from West
Sunrise 7:22 AM
Sunset 7:54 PM
Moon Waning Gibbous

Tomorrow is forecast to be nearly the same temperature as today.

Pressure 29.83 in
Visibility 6.0 miles
Clouds Clear
Heat Index 86 °F
Dew Point 75 °F
Humidity 84%
Rainfall 0.00 in
Snow Depth Not available.
UV 0 out of 16
Pollen Not available.
Air Quality Not available.
Flu Activity Not available.
METAR MMAA 170345Z 27005KT 6SM SKC 27/24 A2983 RMK HZY

More Conditions Fewer Conditions

Pressure 29.83 in
Visibility 6.0 miles
Clouds Clear
Heat Index 86 °F
Dew Point 75 °F
Humidity 84%
Rainfall 0.00 in
Snow Depth Not available.
UV 0 out of 16
Pollen Not available.
Air Quality Not available.
Flu Activity Not available.
METAR MMAA 170345Z 27005KT 6SM SKC 27/24 A2983 RMK HZY

More Conditions Fewer Conditions

10-Day Forecast

Almanac

Astronomy

Apr. 16, 2014 Rise Set
Actual Time 7:22 AM CDT 7:54 PM CDT
Civil Twilight 7:00 AM CDT 8:16 PM CDT
Nautical Twilight 6:35 AM CDT 8:42 PM CDT
Astronomical Twilight 6:08 AM CDT 9:08 PM CDT
Moon 9:27 PM CDT (4/16) 8:20 AM CDT (4/16)
Length of Visible Light 13h 16m
Length of Day
12h 32m
Tomorrow will be 0m 54s longer.
Waning Gibbous, 96% of the Moon is Illuminated
Apr 17
Waning Gibbous
Apr 22
Last Quarter
Apr 29
New
May 6
First Quarter
May 14
Full

Today's Extremes

Country Highs Country Lows

Community

  • symphony in blue....
    symphony in blue....
  • Dawn Surprise
    Dawn Surprise
  • Yucca delight
    Yucca delight
  • Sunset inside of the Ocean
    Sunset inside of the Ocean
  • Lunar eclipse 15 April 2014
    Lunar eclipse 15 April 2014

WunderPhotos

Upload Photos

1,701,856 photos uploaded!

WunderBlogs® & News

Nearby

Snow Depth

Not available.

Coastal Water Temperatures

Place Temperature
No Stations Reporting

Earthquake Activity

City Distance Mag. Time & Date
No recent earthquake activity has been reported nearby.
Minimum magnitude displayed is 2.5.

Nearby Weather Stations

There are no personal weather stations in this area.

What do you think?

We're not finished. Please let us know what you like, what you don't like, and what you are still missing.